Timeline UpdatesTrip UpdatesNews PostsPvt PostsTravel TipsAdmin PostsConv PostsFollowed PostsChat RequestsBlog PostsPNR Posts

Disclaimer
Search
 
 
Thu Aug 21, 2014 13:45:08 ISTHomeTrainsΣChainsAtlasPNRForumGalleryNewsFAQTripsMembersLoginFeedback
No Recent News for this Train
Other Trains in the News **new
Latest...
.
Mon Mar 03, 2014 (11:30AM)
⇐ Return Journey: Train# 13484

13483/Farakka Express (via Faizabad)

Mar 03 2014 (11:30AM)
Change Departure Station:
Change Arrival Station:
Post a Train Travel TipPost a Train Travel Tip **new
Post a Comment/Question/Picture/VideoPost a Comment/Question/Picture/Video
Pantry/Catering
✓ Pantry Car Avbl
✓ Catering Avbl
RSA - Rake Sharing
13413/13414/04031/04032
Rake/Coach Composition
LOCO:PARCEL VAN:SLR:UR:UR:UR:UR:UR:B1:A1:PC:S9:S8:S7:S6:S5:S4:S3:S2:S1:UR:SLR; Author: ✖★hAяѕH °° °°•ⓥⓘⓡDiesel Philic°°•ⓥⓘⓡ
Loco
Loco: [MLDT to LKO] WDM#3A of TKD/LDH shed /TKD WDM#3D...
Read more...
GZB#WAP5/7 [LKO to DLI]
News    PNR    Forum    Time-Table    Availability    Fare Chart    Map    Arr/Dep History    Trips    Gallery    ΣChains    X/O    Timeline    
Travel Time: 2h 30m    3 halts    Distance: 108 km    Avg Speed: 43 km/hr
Type: Mail/Express
Zone: ER/Eastern
Departs @ 19:10 (Avg 17m late)
Platform# 1
S TW F 
Malda Town/MLDT 
Arrives @ 21:40 (Avg 35m late)
Platform# 2
S TW F 
Sahibganj Junction/SBG 

3 halts. 17 intermediate Stations between Malda Town and Sahibganj Junction

Show ALL intermediate Stations  Show Old Time-Table

#CodeStation NameX/OArrivesAvgDepartsAvgHaltPFDay#KmSpeedElevZoneAddress
1MLDT»Malda Town (5)»  -19:10+17110.06430mERDist - Malda, West Bengal
2NFKNew Farakka Junction (3)  19:43+2519:53+3010m1135.13432mERDist - Murshidabad, West Bengal
3BHWBarharwa Junction (3)X  20:25+2720:29+274m1153.15636mERBarharwa, Jharkhand
4TPHTinpahar Junction (3)  20:47+3320:48+351m1169.84445mERBamangawan, Jharkhand
5SBG•Sahibganj Junction (3)•X  21:40+3521:50+3410m21107.54338mERSahibganj, Jharkhand
6PPTPirpainti (2)  22:23+3722:24+381m--1131.15653mERBhagalpur, Bihar
7CLGKahalgaon (2)O  22:46+4222:47+441m21151.45944mERBhagalpur, Bihar
8SBOSabaur (3)  23:10+5123:11+521m--1173.92442mERSabour, Bihar
9BGPBhagalpur Junction (6)X  23:30+4523:40+4310m--1181.57949mERBhagalpur, Bihar
10SGGSultanGanj (3)  23:59+5100:01+522m--1206.44542mERSultanganj, Bihar
11BUPBariarpur (3)  00:25+4600:26+461m--2224.44542mERMunger, Bihar
12JMPJamalpur Junction (4)X  00:41+4600:51+4410m--2235.56959mERJamalpur 06344-243101, Bihar
13AHAAbhaipur (2)  01:10+5101:11+521m--2257.32252mERAbhaipur, Bihar
14KIULKiul Junction (5)  02:15+2702:25+2910m--2280.35853mECRDist. Lakhisarai, Bihar
15BRYABarhiya (3)O  02:42+4202:43+431m--2296.85647mECRBarahiya, Bihar
16MKAMokama Junction (4)  03:02+5203:04+532m--2314.55048mECRPatna, Bihar
17BARHBarh (3)X  03:35+4303:36+451m--2340.45849mECRBarh, Bihar
18BKPBakhtiyarpur Junction (5)  03:55+4603:59+444m--2358.78651mECRPatna, Bihar
19FUTFatwa (6)  04:15+5504:16+571m--2381.71953mECRPatna, Bihar
20PNCPatna Saheb (3)  04:55+3204:56+381m--2393.92959mECRPatna, Bihar
21RJPBRajendra Nagar Bihar (4)  05:11+3805:13+402m--2401.22255mECRPatna 800001, Bihar
22PNBEPatna Junction (10)X  05:20+4405:30+4610m--2403.83857mECRPatna 800001, Bihar
23DNRDanapur (5)X  05:45+5505:55+5510m--2413.28758mECRKhagaul, Bihar
24BTABihta (2)X  06:07+1:0406:08+1:061m--2430.55862mECRDistt: Patna, Bihar
25ARAAra Junction (3)  06:31+1:0706:33+1:072m--2452.79263mECRarrah( 06182-233411), Bihar
26BEABihiya (3)  06:47+1:1306:48+1:141m--2474.17467mECRBehea, Bihar
27RPRRaghunathpur (4)  07:00+1:1607:01+1:191m--2488.97469mECRRaghunathpur, Bihar
28DUREDumraon (3)  07:14+1:2307:15+1:241m--2504.94970mECRDumraon, Bihar
29BXRBuxar (3)X  07:35+1:2107:40+1:195m--2521.27367mECRBuxar, Bihar
30CSAChausa (2)X  07:49+1:2107:50+1:231m--2532.24368mECRState Highway 14, Bihar
31GMRGahmar (2)  08:03+1:2208:04+1:231m--2541.48268mECRDistt: Ghazipur, Uttar Pradesh
32BWHBhadaura (2)X  08:10+1:2608:12+1:272m--2549.64769mECRGhazipur, Uttar Pradesh
33DLNDildarnagar Junction (2)  08:22+1:2708:24+1:272m--2557.48172mECRDildarnagar, Uttar Pradesh
34ZNAZamania (2)  08:34+1:3208:35+1:331m--2570.92977mECRGhazipur, Uttar Pradesh
35MGSMughal Sarai Junction (8)  10:05+4710:20+4715m32615.12583mECRMughalsarai 232101, Uttar Pradesh
36BSBVaranasi Junction (9)X  11:00+1:0311:20+1:0320m82631.67382mNRVaranasi 221002, Uttar Pradesh
37JLLJalalGanj (2)  11:52+1:1811:53+1:191m--2670.83187mNRJalalganj Railway Station, Uttar Pradesh
38ZBDZafarabad Junction (4)X  12:16+1:1412:17+1:191m--2682.81683mNRNational Highway 56, Uttar Pradesh
39JNUJaunpur Junction (5)X  12:42+1:0612:43+1:101m12689.23183mNRJaunpur, Uttar Pradesh
40SHGShahganj Junction (4)  13:47+5613:51+1:024m--2722.55890mNRShahganj, Uttar Pradesh
41MLPRMalipur (2)  14:17+1:0514:18+1:071m--2747.56492mNRMalipur, Uttar Pradesh
42ABPAkbarpur (2)  14:36+1:0914:40+1:104m12766.77492mNRAkbarpur, Uttar Pradesh
43GGJGoshainGanj (3)  14:58+1:1814:59+1:191m--2788.96898mNRGoshainganj, Uttar Pradesh
44AYAyodhya Junction (3)  15:27+1:2215:28+1:231m12820.62598mNRAyodhya, Uttar Pradesh
45ACNDAcharya Narendra Dev Nagar  15:39+1:2215:40+1:271m--2825.17104mNRFaizabad, Uttar Pradesh
46FDFaizabad Junction (5)X  16:00+1:1716:05+1:175m--2827.357104mNRFaizabad, Uttar Pradesh
47SLWSohwalX  16:21+1:2216:22+1:221m--2842.572107mNRFaizabad Rd, Uttar Pradesh
48RDLRudauli (2)  16:41+1:2716:42+1:271m12865.466112mNRRudauli, Uttar Pradesh
49DYDDaryabad  17:03+1:3017:04+1:311m22888.551116mNRFaizabad Rd, Uttar Pradesh
50BBKBarabanki Junction (4)X  17:49+1:2417:50+1:261m12926.521122mNRPin-225001, Uttar Pradesh
51LKOLucknow Charbagh (9)X19:10+5419:35+5225m72955.167123mNR226004, Uttar Pradesh
52ONUnnao Junction (5)X  20:24+1:0320:25+1:041m221009.726129mNRUnnao, Uttar Pradesh
53CNBKanpur Central (10)X  21:05+5621:15+1:0210m721027.186128mNCRKANPUR-208 001, Uttar Pradesh
54ETWEtawah (5)X  22:52+1:2622:53+1:291m221166.481154mNCRDistt. Etawah, Uttar Pradesh
55SKBShikohabad Junction (4)  23:34+1:3423:35+1:351m321221.854166mNCRDistrict Firozabad, Uttar Pradesh
56FZDFirozabad (4)  23:57+1:3623:58+1:381m321241.731164mNCRFirozabad, Uttar Pradesh
57TDLTundla Junction (5)X  00:30+1:2700:38+1:268m231258.270167mNCRDistt.Firozabad, Uttar Pradesh
58HRSHathras Junction (3)  01:19+1:3301:20+1:361m--31306.286183mNCRMahamaya Nagar(05722-242803), Uttar Pradesh
59ALJNAligarh Junction (4)X  01:41+1:3401:46+1:345m331336.487192mNCRAligarh, Uttar Pradesh
60KRJKhurja Junction (4)  02:16+1:5302:21+1:515m--31379.948199mNCRBulandshahr, Uttar Pradesh
61GZBGhaziabad Junction (6)  03:40+1:2603:42+1:262m331442.640217mNRGhaziabad, Uttar Pradesh
62SBBSahibabad Junction (5)  03:52+1:2903:53+1:291m--31449.235209mNRGhaziabad, Uttar Pradesh
63DSAShahdara Junction (4)  04:05+1:1604:06+1:161m--31456.216212mNRCircular Rd, Delhi NCT
64DLIOld Delhi Junction (16)  04:30+1:28-1031462.5-219mNRNear Chandni Chowk Metro Station, Delhi NCT
Scroll to Top
Scroll to Bottom